createdAt,value
2018-04-26T00:09:49.659Z,55.4
2018-04-26T00:19:48.887Z,55.3
2018-04-26T00:29:48.115Z,55.3
2018-04-26T00:39:47.326Z,55.3
2018-04-26T00:49:46.531Z,55.2
2018-04-26T00:59:45.754Z,55.1
2018-04-26T01:09:44.969Z,55.1
2018-04-26T01:19:44.241Z,55
2018-04-26T01:29:43.419Z,54.9
2018-04-26T01:39:42.624Z,54.9
2018-04-26T01:49:41.846Z,54.8
2018-04-26T01:59:41.069Z,54.8
2018-04-26T02:09:40.282Z,54.7
2018-04-26T02:19:39.506Z,54.6
2018-04-26T02:29:38.717Z,54.6
2018-04-26T02:39:37.988Z,54.6
2018-04-26T02:49:37.153Z,54.5
2018-04-26T02:59:36.426Z,54.4
2018-04-26T03:09:35.588Z,54.4
2018-04-26T03:19:34.815Z,54.3
2018-04-26T03:29:34.031Z,54.3
2018-04-26T03:39:33.250Z,53.5
2018-04-26T03:49:32.510Z,50.2
2018-04-26T03:59:31.684Z,49.7
2018-04-26T04:09:30.897Z,49.3
2018-04-26T04:19:30.131Z,46.9
2018-04-26T04:29:29.332Z,46.7
2018-04-26T04:39:28.551Z,45.1
2018-04-26T04:49:27.771Z,45
2018-04-26T04:59:26.992Z,44.7
2018-04-26T05:09:26.220Z,44.6
2018-04-26T05:19:25.433Z,42.6
2018-04-26T05:29:24.710Z,42.1
2018-04-26T05:39:23.881Z,42.3
2018-04-26T05:49:23.102Z,42.4
2018-04-26T05:59:22.314Z,42.7
2018-04-26T06:09:21.532Z,43.1
2018-04-26T06:19:20.752Z,43.4
2018-04-26T06:29:20.030Z,43.9
2018-04-26T06:39:19.189Z,44.8
2018-04-26T06:49:18.404Z,45.6
2018-04-26T06:59:17.624Z,46.5
2018-04-26T07:09:16.852Z,47.5
2018-04-26T07:19:16.119Z,48.6
2018-04-26T07:29:15.288Z,49.7
2018-04-26T07:39:14.497Z,50.8
2018-04-26T07:49:13.726Z,51.8
2018-04-26T07:59:12.981Z,52.7
2018-04-26T08:09:12.157Z,53.6
2018-04-26T08:19:11.368Z,54.5
2018-04-26T08:29:10.641Z,55.4
2018-04-26T08:39:09.814Z,56.2
2018-04-26T08:49:09.028Z,57.1
2018-04-26T08:59:08.243Z,57.7
2018-04-26T09:09:07.464Z,58.3
2018-04-26T09:19:06.691Z,58.9
2018-04-26T09:29:05.961Z,59.4
2018-04-26T09:39:05.134Z,60.1
2018-04-26T09:49:04.393Z,60.7
2018-04-26T09:59:03.563Z,61.3
2018-04-26T10:09:02.785Z,61.9
2018-04-26T10:19:02.017Z,62.3
2018-04-26T10:29:01.244Z,62.6
2018-04-26T10:39:00.449Z,63
2018-04-26T10:48:59.728Z,63.2
2018-04-26T10:58:58.914Z,63.4
2018-04-26T11:08:58.144Z,63.7
2018-04-26T11:18:57.345Z,64.2
2018-04-26T11:28:56.630Z,64.8
2018-04-26T11:38:55.800Z,65.4
2018-04-26T11:48:55.000Z,66
2018-04-26T11:58:54.296Z,66.6
2018-04-26T12:08:53.440Z,67.1
2018-04-26T12:18:52.679Z,67.4
2018-04-26T12:28:51.892Z,67.6
2018-04-26T12:38:51.125Z,67.7
2018-04-26T12:48:50.344Z,67.8
2018-04-26T12:58:49.566Z,67.9
2018-04-26T13:08:48.762Z,68.1
2018-04-26T13:18:47.990Z,68.3
2018-04-26T13:28:47.252Z,68.4
2018-04-26T13:38:46.446Z,68.4
2018-04-26T13:48:45.667Z,68.6
2018-04-26T13:58:44.916Z,68.8
2018-04-26T14:08:44.103Z,69.1
2018-04-26T14:18:43.317Z,69.3
2018-04-26T14:28:42.549Z,69.6
2018-04-26T14:38:41.769Z,69.9
2018-04-26T14:48:40.984Z,70.1
2018-04-26T14:58:40.195Z,70.4
2018-04-26T15:08:39.478Z,70.7
2018-04-26T15:18:38.720Z,70.8
2018-04-26T15:28:37.919Z,71
2018-04-26T15:38:37.077Z,71
2018-04-26T15:48:36.303Z,70.5
2018-04-26T15:58:35.588Z,64.8
2018-04-26T16:08:34.814Z,62.6
2018-04-26T16:18:33.965Z,61.8
2018-04-26T16:28:33.190Z,60.9
2018-04-26T16:38:32.407Z,60.1
2018-04-26T16:48:31.642Z,58.9
2018-04-26T16:58:30.864Z,58.3
2018-04-26T17:08:30.140Z,57.6
2018-04-26T17:18:29.307Z,56.7
2018-04-26T17:28:28.567Z,56.7
2018-04-26T17:38:27.747Z,56.5
2018-04-26T17:48:26.959Z,56.4
2018-04-26T17:58:26.265Z,55.9
2018-04-26T18:08:25.466Z,55.1
2018-04-26T18:18:24.630Z,53.7
2018-04-26T18:28:23.905Z,53.7
2018-04-26T18:38:23.082Z,53.6
2018-04-26T18:48:22.304Z,52.6
2018-04-26T18:58:21.533Z,44.9
2018-04-26T19:08:20.800Z,41.1
2018-04-26T19:18:19.966Z,41.3
2018-04-26T19:28:19.226Z,41.4
2018-04-26T19:38:18.392Z,41.4
2018-04-26T19:48:17.632Z,41.4
2018-04-26T19:58:16.831Z,41.5
2018-04-26T20:08:16.078Z,41.6
2018-04-26T20:18:15.274Z,41.6
2018-04-26T20:28:14.602Z,41.6
2018-04-26T20:38:13.738Z,41.7
2018-04-26T20:48:12.993Z,41.8
2018-04-26T20:58:12.167Z,41.8
2018-04-26T21:08:11.466Z,41.8
2018-04-26T21:18:10.639Z,41.9
2018-04-26T21:28:09.874Z,41.9
2018-04-26T21:38:09.082Z,41.9
2018-04-26T21:48:08.313Z,42
2018-04-26T21:58:07.512Z,42
2018-04-26T22:08:06.755Z,42.1
2018-04-26T22:18:05.975Z,42.1
2018-04-26T22:28:05.234Z,42.1
2018-04-26T22:38:04.392Z,42.2
2018-04-26T22:48:03.611Z,42.3
2018-04-26T22:58:02.926Z,42.3
2018-04-26T23:08:02.051Z,42.3
2018-04-26T23:18:01.275Z,42.3
2018-04-26T23:28:00.511Z,42.3
2018-04-26T23:37:59.741Z,42.4
2018-04-26T23:47:58.946Z,42.4
2018-04-26T23:57:58.203Z,42.4
